createdAt,value
2018-03-19T00:00:39.246Z,1.54
2018-03-19T00:03:06.868Z,1.48
2018-03-19T00:05:34.517Z,1.47
2018-03-19T00:08:02.167Z,1.34
2018-03-19T00:10:29.763Z,1.21
2018-03-19T00:12:57.335Z,1.27
2018-03-19T00:15:24.959Z,1.23
2018-03-19T00:17:52.569Z,1.07
2018-03-19T00:20:20.280Z,0.91
2018-03-19T00:22:47.842Z,0.93
2018-03-19T00:25:15.598Z,0.93
2018-03-19T00:27:43.152Z,1.03
2018-03-19T00:30:10.720Z,1.05
2018-03-19T00:32:38.364Z,1.13
2018-03-19T00:35:05.935Z,1.15
2018-03-19T00:37:33.501Z,1.24
2018-03-19T00:40:01.160Z,1.33
2018-03-19T00:42:28.823Z,1.22
2018-03-19T00:44:56.485Z,1.23
2018-03-19T00:47:24.074Z,1.31
2018-03-19T00:49:51.808Z,1.34
2018-03-19T00:52:19.474Z,1.33
2018-03-19T00:54:47.128Z,1.31
2018-03-19T00:57:14.792Z,1.29
2018-03-19T00:59:42.471Z,1.27
2018-03-19T01:02:10.095Z,1.19
2018-03-19T01:04:37.652Z,1.21
2018-03-19T01:07:05.242Z,1.14
2018-03-19T01:09:32.861Z,0.93
2018-03-19T01:12:00.565Z,0.77
2018-03-19T01:14:28.234Z,0.75
2018-03-19T01:16:55.869Z,0.77
2018-03-19T01:19:23.440Z,0.76
2018-03-19T01:21:51.008Z,0.74
2018-03-19T01:24:18.602Z,0.78
2018-03-19T01:26:46.189Z,0.81
2018-03-19T01:29:13.764Z,0.74
2018-03-19T01:31:41.467Z,0.75
2018-03-19T01:34:09.050Z,0.75
2018-03-19T01:36:36.626Z,0.87
2018-03-19T01:39:04.422Z,0.79
2018-03-19T01:41:31.986Z,0.76
2018-03-19T01:43:59.576Z,0.71
2018-03-19T01:46:27.218Z,0.71
2018-03-19T01:48:54.795Z,0.60
2018-03-19T01:51:22.365Z,0.62
2018-03-19T01:53:49.974Z,0.59
2018-03-19T01:56:17.559Z,0.49
2018-03-19T01:58:45.143Z,0.42
2018-03-19T02:01:12.782Z,0.48
2018-03-19T02:03:40.444Z,0.36
2018-03-19T02:06:08.110Z,0.30
2018-03-19T02:08:35.735Z,0.25
2018-03-19T02:11:03.439Z,0.18
2018-03-19T02:13:31.109Z,0.10
2018-03-19T02:15:58.766Z,0.03
2018-03-19T02:18:26.422Z,0.00
2018-03-19T02:20:53.999Z,-0.07
2018-03-19T02:23:21.628Z,0.10
2018-03-19T02:25:49.201Z,0.10
2018-03-19T02:28:16.775Z,0.02
2018-03-19T02:30:44.387Z,-0.10
2018-03-19T02:33:11.969Z,-0.15
2018-03-19T02:35:39.661Z,0.02
2018-03-19T02:38:07.317Z,0.01
2018-03-19T02:40:34.892Z,0.05
2018-03-19T02:43:02.471Z,0.06
2018-03-19T02:45:30.081Z,0.08
2018-03-19T02:47:57.758Z,-0.03
2018-03-19T02:50:25.344Z,0.00
2018-03-19T02:52:53.083Z,-0.02
2018-03-19T02:55:20.733Z,0.06
2018-03-19T02:57:48.314Z,0.10
2018-03-19T03:00:16.001Z,0.13
2018-03-19T03:02:43.590Z,-0.03
2018-03-19T03:05:11.152Z,0.08
2018-03-19T03:07:38.757Z,0.04
2018-03-19T03:10:06.524Z,-0.04
2018-03-19T03:12:34.163Z,-0.02
2018-03-19T03:15:01.785Z,-0.02
2018-03-19T03:17:29.373Z,-0.05
2018-03-19T03:19:57.154Z,-0.06
2018-03-19T03:22:25.040Z,-0.12
2018-03-19T03:24:52.684Z,-0.11
2018-03-19T03:27:20.348Z,-0.07
2018-03-19T03:29:47.997Z,-0.02
2018-03-19T03:32:15.673Z,0.00
2018-03-19T03:34:43.320Z,0.07
2018-03-19T03:37:11.194Z,-0.14
2018-03-19T03:39:38.781Z,-0.24
2018-03-19T03:42:06.538Z,-0.20
2018-03-19T03:44:34.156Z,-0.26
2018-03-19T03:47:01.858Z,-0.28
2018-03-19T03:49:29.434Z,-0.26
2018-03-19T03:51:57.184Z,-0.26
2018-03-19T03:54:24.842Z,-0.35
2018-03-19T03:56:52.434Z,-0.31
2018-03-19T03:59:20.098Z,-0.20
2018-03-19T04:01:47.678Z,-0.16
2018-03-19T04:04:15.299Z,-0.14
2018-03-19T04:06:42.951Z,-0.09
2018-03-19T04:09:10.527Z,-0.07
2018-03-19T04:11:38.103Z,-0.02
2018-03-19T04:14:05.707Z,-0.05
2018-03-19T04:16:33.404Z,0.06
2018-03-19T04:19:01.062Z,0.07
2018-03-19T04:21:28.688Z,-0.07
2018-03-19T04:23:56.289Z,-0.14
2018-03-19T04:26:23.871Z,-0.10
2018-03-19T04:28:51.924Z,-0.11
2018-03-19T04:31:19.573Z,-0.17
2018-03-19T04:33:47.148Z,-0.12
2018-03-19T04:36:14.764Z,-0.06
2018-03-19T04:38:42.548Z,-0.04
2018-03-19T04:41:10.124Z,0.01
2018-03-19T04:43:37.729Z,0.06
2018-03-19T04:46:05.338Z,0.01
2018-03-19T04:48:32.918Z,0.08
2018-03-19T04:51:00.525Z,0.03
2018-03-19T04:53:28.114Z,-0.06
2018-03-19T04:55:55.696Z,-0.08
2018-03-19T04:58:23.314Z,-0.11
2018-03-19T05:00:51.121Z,-0.05
2018-03-19T05:03:18.683Z,-0.01
2018-03-19T05:05:46.298Z,0.06
2018-03-19T05:08:13.872Z,0.08
2018-03-19T05:10:41.757Z,0.13
2018-03-19T05:13:09.425Z,0.19
2018-03-19T05:15:37.096Z,0.42
2018-03-19T05:18:04.824Z,0.57
2018-03-19T05:20:32.423Z,0.58
2018-03-19T05:23:00.255Z,0.76
2018-03-19T05:25:27.827Z,0.73
2018-03-19T05:27:55.427Z,0.63
2018-03-19T05:30:23.086Z,0.76
2018-03-19T05:32:50.673Z,0.90
2018-03-19T05:35:18.285Z,0.96
2018-03-19T05:37:45.868Z,1.01
2018-03-19T05:40:13.454Z,1.06
2018-03-19T05:42:41.074Z,1.09
2018-03-19T05:45:08.654Z,1.13
2018-03-19T05:47:36.240Z,0.80
2018-03-19T05:50:03.956Z,0.91
2018-03-19T05:52:31.538Z,0.99
2018-03-19T05:54:59.281Z,0.99
2018-03-19T05:57:26.896Z,0.85
2018-03-19T05:59:54.485Z,0.95
2018-03-19T06:02:22.094Z,0.84
2018-03-19T06:04:49.887Z,0.61
2018-03-19T06:07:17.473Z,0.61
2018-03-19T06:09:45.045Z,0.49
2018-03-19T06:12:12.651Z,0.37
2018-03-19T06:14:40.360Z,0.39
2018-03-19T06:17:07.934Z,0.43
2018-03-19T06:19:35.695Z,0.96
2018-03-19T06:22:03.568Z,0.89
2018-03-19T06:24:31.142Z,0.85
2018-03-19T06:26:58.759Z,0.39
2018-03-19T06:29:26.541Z,0.56
2018-03-19T06:31:54.110Z,0.54
2018-03-19T06:34:21.744Z,0.53
2018-03-19T06:36:49.320Z,0.50
2018-03-19T06:39:16.895Z,0.40
2018-03-19T06:41:44.512Z,0.37
2018-03-19T06:44:18.554Z,0.32
2018-03-19T06:46:46.186Z,0.21
2018-03-19T06:49:13.768Z,-0.04
2018-03-19T06:51:41.350Z,-0.18
2018-03-19T06:54:08.979Z,-0.07
2018-03-19T06:56:36.958Z,0.01
2018-03-19T06:59:04.645Z,0.05
2018-03-19T07:01:32.343Z,0.01
2018-03-19T07:03:59.952Z,0.03
2018-03-19T07:06:27.675Z,-0.13
2018-03-19T07:08:55.493Z,-0.10
2018-03-19T07:11:23.151Z,-0.09
2018-03-19T07:13:50.807Z,-0.12
2018-03-19T07:16:18.485Z,-0.10
2018-03-19T07:18:46.149Z,-0.04
2018-03-19T07:21:13.746Z,0.04
2018-03-19T07:23:41.458Z,0.03
2018-03-19T07:26:09.032Z,0.03
2018-03-19T07:28:36.793Z,0.02
2018-03-19T07:31:04.454Z,0.15
2018-03-19T07:33:32.120Z,0.24
2018-03-19T07:35:59.822Z,0.22
2018-03-19T07:38:27.642Z,0.30
2018-03-19T07:40:55.387Z,0.37
2018-03-19T07:43:22.983Z,0.36
2018-03-19T07:45:50.638Z,0.35
2018-03-19T07:48:18.290Z,0.37
2018-03-19T07:50:45.872Z,0.40
2018-03-19T07:53:13.618Z,0.45
2018-03-19T07:55:41.197Z,0.40
2018-03-19T07:58:08.948Z,0.46
2018-03-19T08:00:36.596Z,0.57
2018-03-19T08:03:04.170Z,0.60
2018-03-19T08:05:31.927Z,0.73
2018-03-19T08:07:59.587Z,0.84
2018-03-19T08:10:27.241Z,0.98
2018-03-19T08:12:54.823Z,1.06
2018-03-19T08:15:22.571Z,0.95
2018-03-19T08:17:50.146Z,1.04
2018-03-19T08:20:17.966Z,1.13
2018-03-19T08:22:45.769Z,1.18
2018-03-19T08:25:13.441Z,1.18
2018-03-19T08:27:41.147Z,1.12
2018-03-19T08:30:08.744Z,1.14
2018-03-19T08:32:36.411Z,1.13
2018-03-19T08:35:04.088Z,1.14
2018-03-19T08:37:31.711Z,1.07
2018-03-19T08:39:59.414Z,1.06
2018-03-19T08:42:27.264Z,1.22
2018-03-19T08:44:54.878Z,1.21
2018-03-19T08:47:22.728Z,1.32
2018-03-19T08:49:50.472Z,1.40
2018-03-19T08:52:18.118Z,1.46
2018-03-19T08:54:45.706Z,1.50
2018-03-19T08:57:13.287Z,1.45
2018-03-19T08:59:41.122Z,1.45
2018-03-19T09:02:08.781Z,1.55
2018-03-19T09:04:36.357Z,1.58
2018-03-19T09:07:04.315Z,1.40
2018-03-19T09:09:31.956Z,1.42
2018-03-19T09:11:59.546Z,1.34
2018-03-19T09:14:27.289Z,1.31
2018-03-19T09:16:54.869Z,1.30
2018-03-19T09:19:22.628Z,1.45
2018-03-19T09:21:50.460Z,1.55
2018-03-19T09:24:18.041Z,1.57
2018-03-19T09:26:45.611Z,1.55
2018-03-19T09:29:13.263Z,1.56
2018-03-19T09:31:40.884Z,1.59
2018-03-19T09:34:08.601Z,1.58
2018-03-19T09:36:36.491Z,1.64
2018-03-19T09:39:04.333Z,1.69
2018-03-19T09:41:32.042Z,1.76
2018-03-19T09:43:59.672Z,1.75
2018-03-19T09:46:27.322Z,1.80
2018-03-19T09:48:54.906Z,1.75
2018-03-19T09:51:22.745Z,1.78
2018-03-19T09:53:50.322Z,1.74
2018-03-19T09:56:18.142Z,1.86
2018-03-19T09:58:45.925Z,2.13
2018-03-19T10:01:13.601Z,2.31
2018-03-19T10:03:41.442Z,2.50
2018-03-19T10:06:09.182Z,2.53
2018-03-19T10:08:36.766Z,2.31
2018-03-19T10:11:04.453Z,2.29
2018-03-19T10:13:32.107Z,2.48
2018-03-19T10:15:59.778Z,2.48
2018-03-19T10:18:27.358Z,2.56
2018-03-19T10:20:54.983Z,2.66
2018-03-19T10:23:22.756Z,2.80
2018-03-19T10:25:50.345Z,3.09
2018-03-19T10:28:18.070Z,3.34
2018-03-19T10:30:45.663Z,3.27
2018-03-19T10:33:13.248Z,3.12
2018-03-19T10:35:41.256Z,2.97
2018-03-19T10:38:08.902Z,3.01
2018-03-19T10:40:36.606Z,2.96
2018-03-19T10:43:04.377Z,2.95
2018-03-19T10:45:31.959Z,3.39
2018-03-19T10:47:59.538Z,3.55
2018-03-19T10:50:27.350Z,3.64
2018-03-19T10:52:55.102Z,3.45
2018-03-19T10:55:22.771Z,3.42
2018-03-19T10:57:50.435Z,3.42
2018-03-19T11:00:18.016Z,3.46
2018-03-19T11:02:51.288Z,3.60
2018-03-19T11:05:24.478Z,3.78
2018-03-19T11:07:57.563Z,3.73
2018-03-19T11:10:25.376Z,3.76
2018-03-19T11:12:53.221Z,3.68
2018-03-19T11:15:20.966Z,3.67
2018-03-19T11:17:48.749Z,3.64
2018-03-19T11:20:16.319Z,3.65
2018-03-19T11:22:44.062Z,3.62
2018-03-19T11:25:11.738Z,3.66
2018-03-19T11:27:39.326Z,3.48
2018-03-19T11:30:07.052Z,3.26
2018-03-19T11:32:34.654Z,3.30
2018-03-19T11:35:02.243Z,3.18
2018-03-19T11:37:30.351Z,3.26
2018-03-19T11:39:57.943Z,3.33
2018-03-19T11:42:25.674Z,3.37
2018-03-19T11:44:53.372Z,3.27
2018-03-19T11:47:21.123Z,3.20
2018-03-19T11:49:48.765Z,3.02
2018-03-19T11:52:16.518Z,3.32
2018-03-19T11:54:44.192Z,3.38
2018-03-19T11:57:11.842Z,3.43
2018-03-19T11:59:39.532Z,3.44
2018-03-19T12:02:07.898Z,3.54
2018-03-19T12:04:35.728Z,3.72
2018-03-19T12:07:03.531Z,3.77
2018-03-19T12:09:31.189Z,3.85
2018-03-19T12:11:58.772Z,4.10
2018-03-19T12:14:26.385Z,4.06
2018-03-19T12:16:53.968Z,3.65
2018-03-19T12:19:21.585Z,3.71
2018-03-19T12:21:49.197Z,3.65
2018-03-19T12:24:16.815Z,3.62
2018-03-19T12:26:44.438Z,3.74
2018-03-19T12:29:12.049Z,4.01
2018-03-19T12:31:39.630Z,4.08
2018-03-19T12:34:07.199Z,4.23
2018-03-19T12:36:34.814Z,4.24
2018-03-19T12:39:02.388Z,4.20
2018-03-19T12:41:30.007Z,4.11
2018-03-19T12:43:57.625Z,4.17
2018-03-19T12:46:25.216Z,4.19
2018-03-19T12:48:52.819Z,4.29
2018-03-19T12:51:20.507Z,4.33
2018-03-19T12:53:48.104Z,4.39
2018-03-19T12:56:15.733Z,4.49
2018-03-19T12:58:43.352Z,4.42
2018-03-19T13:01:10.934Z,4.38
2018-03-19T13:03:38.529Z,4.29
2018-03-19T13:06:06.149Z,4.28
2018-03-19T13:08:33.738Z,4.29
2018-03-19T13:11:01.330Z,4.09
2018-03-19T13:13:28.954Z,3.91
2018-03-19T13:15:56.539Z,3.86
2018-03-19T13:18:24.111Z,3.89
2018-03-19T13:20:51.777Z,3.88
2018-03-19T13:23:19.370Z,3.75
2018-03-19T13:25:47.006Z,3.72
2018-03-19T13:28:14.618Z,3.75
2018-03-19T13:30:42.255Z,3.76
2018-03-19T13:33:09.857Z,3.76
2018-03-19T13:35:37.479Z,3.72
2018-03-19T13:38:05.065Z,3.74
2018-03-19T13:40:32.694Z,3.68
2018-03-19T13:43:00.321Z,3.74
2018-03-19T13:45:27.904Z,3.80
2018-03-19T13:47:55.486Z,3.68
2018-03-19T13:50:23.176Z,3.70
2018-03-19T13:52:50.722Z,3.64
2018-03-19T13:55:18.338Z,3.75
2018-03-19T13:57:45.973Z,3.76
2018-03-19T14:00:13.557Z,3.72
2018-03-19T14:02:41.144Z,3.76
2018-03-19T14:05:08.768Z,3.77
2018-03-19T14:07:36.356Z,3.79
2018-03-19T14:10:03.933Z,3.79
2018-03-19T14:12:31.549Z,3.68
2018-03-19T14:14:59.147Z,3.69
2018-03-19T14:17:26.733Z,3.63
2018-03-19T14:19:54.336Z,3.61
2018-03-19T14:22:21.963Z,3.60
2018-03-19T14:24:49.577Z,3.71
2018-03-19T14:27:17.189Z,3.67
2018-03-19T14:29:44.771Z,3.50
2018-03-19T14:32:12.362Z,3.43
2018-03-19T14:34:39.991Z,3.38
2018-03-19T14:37:07.588Z,3.46
2018-03-19T14:39:35.171Z,3.40
2018-03-19T14:42:02.790Z,3.36
2018-03-19T14:44:30.481Z,3.30
2018-03-19T14:46:58.322Z,3.27
2018-03-19T14:49:27.457Z,3.30
2018-03-19T14:51:55.763Z,3.19
2018-03-19T14:54:23.521Z,2.89
2018-03-19T14:56:52.696Z,2.85
2018-03-19T14:59:21.610Z,2.87
2018-03-19T15:01:50.723Z,2.86
2018-03-19T15:04:20.307Z,2.71
2018-03-19T15:06:49.277Z,2.71
2018-03-19T15:09:18.623Z,2.83
2018-03-19T15:11:46.706Z,2.81
2018-03-19T15:14:16.200Z,2.80
2018-03-19T15:16:45.126Z,2.76
2018-03-19T15:19:14.698Z,2.87
2018-03-19T15:21:43.867Z,2.82
2018-03-19T15:24:13.249Z,2.84
2018-03-19T15:26:42.922Z,2.77
2018-03-19T15:29:12.047Z,2.75
2018-03-19T15:31:41.105Z,2.64
2018-03-19T15:34:10.678Z,2.60
2018-03-19T15:36:40.031Z,2.61
2018-03-19T15:39:08.801Z,2.63
2018-03-19T15:41:38.309Z,2.56
2018-03-19T15:44:05.959Z,2.40
2018-03-19T15:46:33.695Z,2.33
2018-03-19T15:49:01.377Z,2.29
2018-03-19T15:51:28.983Z,2.39
2018-03-19T15:53:56.707Z,2.37
2018-03-19T15:56:24.348Z,2.37
2018-03-19T15:58:51.958Z,2.36
2018-03-19T16:01:19.536Z,2.32
2018-03-19T16:03:47.340Z,2.39
2018-03-19T16:06:14.918Z,2.32
2018-03-19T16:08:42.673Z,2.29
2018-03-19T16:11:10.278Z,2.30
2018-03-19T16:13:38.016Z,2.32
2018-03-19T16:16:05.681Z,2.44
2018-03-19T16:18:33.339Z,2.39
2018-03-19T16:21:00.984Z,2.36
2018-03-19T16:23:28.642Z,2.32
2018-03-19T16:25:56.274Z,2.31
2018-03-19T16:28:23.856Z,2.33
2018-03-19T16:30:51.435Z,2.40
2018-03-19T16:33:19.084Z,2.47
2018-03-19T16:35:46.660Z,2.43
2018-03-19T16:38:14.417Z,2.40
2018-03-19T16:40:42.071Z,2.40
2018-03-19T16:43:09.745Z,2.41
2018-03-19T16:45:37.323Z,2.37
2018-03-19T16:48:05.086Z,2.35
2018-03-19T16:50:32.673Z,2.34
2018-03-19T16:53:00.258Z,2.34
2018-03-19T16:55:28.070Z,2.30
2018-03-19T16:57:55.727Z,2.32
2018-03-19T17:00:23.314Z,2.38
2018-03-19T17:02:51.041Z,2.44
2018-03-19T17:05:18.706Z,2.43
2018-03-19T17:07:46.385Z,2.44
2018-03-19T17:10:14.001Z,2.57
2018-03-19T17:12:41.849Z,2.49
2018-03-19T17:15:09.572Z,2.42
2018-03-19T17:17:37.202Z,2.37
2018-03-19T17:20:04.794Z,2.40
2018-03-19T17:22:32.543Z,2.45
2018-03-19T17:25:00.198Z,2.48
2018-03-19T17:27:27.867Z,2.52
2018-03-19T17:29:55.551Z,2.39
2018-03-19T17:32:23.324Z,2.37
2018-03-19T17:34:50.832Z,2.43
2018-03-19T17:37:18.402Z,2.49
2018-03-19T17:39:46.021Z,2.36
2018-03-19T17:42:13.614Z,2.38
2018-03-19T17:44:41.242Z,2.41
2018-03-19T17:47:09.187Z,2.44
2018-03-19T17:49:36.838Z,2.52
2018-03-19T17:52:04.616Z,2.55
2018-03-19T17:54:32.234Z,2.52
2018-03-19T17:56:59.831Z,2.31
2018-03-19T17:59:28.292Z,2.40
2018-03-19T18:01:56.169Z,2.40
2018-03-19T18:04:23.751Z,2.36
2018-03-19T18:06:51.328Z,2.30
2018-03-19T18:09:19.104Z,2.26
2018-03-19T18:11:46.687Z,2.11
2018-03-19T18:14:14.271Z,2.06
2018-03-19T18:16:41.929Z,1.90
2018-03-19T18:19:09.593Z,1.91
2018-03-19T18:21:37.168Z,1.90
2018-03-19T18:24:04.939Z,1.90
2018-03-19T18:26:32.526Z,1.85
2018-03-19T18:29:00.093Z,2.05
2018-03-19T18:31:28.496Z,2.02
2018-03-19T18:33:56.196Z,2.02
2018-03-19T18:36:23.760Z,1.95
2018-03-19T18:38:51.354Z,2.04
2018-03-19T18:41:18.938Z,2.02
2018-03-19T18:43:46.635Z,1.95
2018-03-19T18:46:14.286Z,2.01
2018-03-19T18:48:41.950Z,1.96
2018-03-19T18:51:09.525Z,2.05
2018-03-19T18:53:37.148Z,2.12
2018-03-19T18:56:04.768Z,2.17
2018-03-19T18:58:32.387Z,2.22
2018-03-19T19:01:00.012Z,2.24
2018-03-19T19:03:27.716Z,2.28
2018-03-19T19:05:56.187Z,2.32
2018-03-19T19:08:23.789Z,2.35
2018-03-19T19:10:51.618Z,2.36
2018-03-19T19:13:19.204Z,2.24
2018-03-19T19:15:46.814Z,2.36
2018-03-19T19:18:14.420Z,2.45
2018-03-19T19:20:41.995Z,2.37
2018-03-19T19:23:09.630Z,2.33
2018-03-19T19:25:37.294Z,2.29
2018-03-19T19:28:04.896Z,2.21
2018-03-19T19:30:32.512Z,2.07
2018-03-19T19:33:00.279Z,1.98
2018-03-19T19:35:27.875Z,1.93
2018-03-19T19:37:55.599Z,1.89
2018-03-19T19:40:23.178Z,1.91
2018-03-19T19:42:50.748Z,1.94
2018-03-19T19:45:18.340Z,1.86
2018-03-19T19:47:46.018Z,1.91
2018-03-19T19:50:13.653Z,1.83
2018-03-19T19:52:41.262Z,1.90
2018-03-19T19:55:08.889Z,1.82
2018-03-19T19:57:36.494Z,1.85
2018-03-19T20:00:04.277Z,1.82
2018-03-19T20:02:31.834Z,1.83
2018-03-19T20:04:59.413Z,1.79
2018-03-19T20:07:27.011Z,1.82
2018-03-19T20:09:54.572Z,1.77
2018-03-19T20:12:22.142Z,1.64
2018-03-19T20:14:49.743Z,1.69
2018-03-19T20:17:17.381Z,1.68
2018-03-19T20:19:45.057Z,1.54
2018-03-19T20:22:12.651Z,1.55
2018-03-19T20:24:40.215Z,1.52
2018-03-19T20:27:07.786Z,1.30
2018-03-19T20:29:35.534Z,1.38
2018-03-19T20:32:03.145Z,1.40
2018-03-19T20:34:30.716Z,1.46
2018-03-19T20:36:58.327Z,1.50
2018-03-19T20:39:25.901Z,1.51
2018-03-19T20:41:53.473Z,1.53
2018-03-19T20:44:21.095Z,1.51
2018-03-19T20:46:48.703Z,1.53
2018-03-19T20:49:16.283Z,1.34
2018-03-19T20:51:43.904Z,1.38
2018-03-19T20:54:11.915Z,1.45
2018-03-19T20:56:39.498Z,1.40
2018-03-19T20:59:07.122Z,1.55
2018-03-19T21:01:34.694Z,1.49
2018-03-19T21:04:02.364Z,1.46
2018-03-19T21:06:30.044Z,1.38
2018-03-19T21:08:57.612Z,1.40
2018-03-19T21:11:25.194Z,1.43
2018-03-19T21:13:52.808Z,1.33
2018-03-19T21:16:20.363Z,1.33
2018-03-19T21:18:47.915Z,1.29
2018-03-19T21:21:15.668Z,1.28
2018-03-19T21:23:43.230Z,1.18
2018-03-19T21:26:10.809Z,1.10
2018-03-19T21:28:38.412Z,1.03
2018-03-19T21:31:06.137Z,1.06
2018-03-19T21:33:33.782Z,1.07
2018-03-19T21:36:01.384Z,1.07
2018-03-19T21:38:28.953Z,0.94
2018-03-19T21:40:56.513Z,0.91
2018-03-19T21:43:24.159Z,0.91
2018-03-19T21:45:51.710Z,0.87
2018-03-19T21:48:19.290Z,0.91
2018-03-19T21:50:46.902Z,0.96
2018-03-19T21:53:14.478Z,0.98
2018-03-19T21:55:42.058Z,1.03
2018-03-19T21:58:09.641Z,1.03
2018-03-19T22:00:37.208Z,1.07
2018-03-19T22:03:04.775Z,1.09
2018-03-19T22:05:32.384Z,1.09
2018-03-19T22:07:59.959Z,1.12
2018-03-19T22:10:27.517Z,1.02
2018-03-19T22:12:55.127Z,1.00
2018-03-19T22:15:22.832Z,1.03
2018-03-19T22:17:50.399Z,1.02
2018-03-19T22:20:18.000Z,0.95
2018-03-19T22:22:45.822Z,0.93
2018-03-19T22:25:13.401Z,0.90
2018-03-19T22:27:41.025Z,0.89
2018-03-19T22:30:08.589Z,0.95
2018-03-19T22:32:36.166Z,0.98
2018-03-19T22:35:03.871Z,0.97
2018-03-19T22:37:31.437Z,0.92
2018-03-19T22:39:59.002Z,0.94
2018-03-19T22:42:26.606Z,1.00
2018-03-19T22:44:54.364Z,1.08
2018-03-19T22:47:22.203Z,1.08
2018-03-19T22:49:50.082Z,1.13
2018-03-19T22:52:17.655Z,1.15
2018-03-19T22:54:45.227Z,1.18
2018-03-19T22:57:12.881Z,1.18
2018-03-19T22:59:40.545Z,1.14
2018-03-19T23:02:08.127Z,1.03
2018-03-19T23:04:47.519Z,1.12
2018-03-19T23:07:15.091Z,1.18
2018-03-19T23:09:42.660Z,1.19
2018-03-19T23:12:10.300Z,1.16
2018-03-19T23:14:37.879Z,1.15
2018-03-19T23:17:05.528Z,1.17
2018-03-19T23:19:33.128Z,1.16
2018-03-19T23:22:00.752Z,1.11
2018-03-19T23:24:28.302Z,1.04
2018-03-19T23:26:55.926Z,0.96
2018-03-19T23:29:23.504Z,0.95
2018-03-19T23:31:51.103Z,0.86
2018-03-19T23:34:18.692Z,0.80
2018-03-19T23:36:46.357Z,0.89
2018-03-19T23:39:14.022Z,0.95
2018-03-19T23:41:41.625Z,0.93
2018-03-19T23:44:09.198Z,0.81
2018-03-19T23:46:36.761Z,0.81
2018-03-19T23:49:04.373Z,0.89
2018-03-19T23:51:31.950Z,0.95
2018-03-19T23:53:59.512Z,0.93
2018-03-19T23:56:27.109Z,0.85
2018-03-19T23:58:54.679Z,0.91
